地図

経路データ

SID SEASON NUMBER BASIN SUBBASIN NAME ISO_TIME NATURE LAT LON WMO_WIND WMO_PRES WMO_AGENCY TRACK_TYPE DIST2LAND LANDFALL IFLAG USA_AGENCY USA_ATCF_ID USA_LAT USA_LON USA_RECORD USA_STATUS USA_WIND USA_PRES USA_SSHS USA_R34_NE USA_R34_SE USA_R34_SW USA_R34_NW USA_R50_NE USA_R50_SE USA_R50_SW USA_R50_NW USA_R64_NE USA_R64_SE USA_R64_SW USA_R64_NW USA_POCI USA_ROCI USA_RMW USA_EYE TOKYO_LAT TOKYO_LON TOKYO_GRADE TOKYO_WIND TOKYO_PRES TOKYO_R50_DIR TOKYO_R50_LONG TOKYO_R50_SHORT TOKYO_R30_DIR TOKYO_R30_LONG TOKYO_R30_SHORT TOKYO_LAND CMA_LAT CMA_LON CMA_CAT CMA_WIND CMA_PRES HKO_LAT HKO_LON HKO_CAT HKO_WIND HKO_PRES NEWDELHI_LAT NEWDELHI_LON NEWDELHI_GRADE NEWDELHI_WIND NEWDELHI_PRES NEWDELHI_CI NEWDELHI_DP NEWDELHI_POCI REUNION_LAT REUNION_LON REUNION_TYPE REUNION_WIND REUNION_PRES REUNION_TNUM REUNION_CI REUNION_RMW REUNION_R34_NE REUNION_R34_SE REUNION_R34_SW REUNION_R34_NW REUNION_R50_NE REUNION_R50_SE REUNION_R50_SW REUNION_R50_NW REUNION_R64_NE REUNION_R64_SE REUNION_R64_SW REUNION_R64_NW BOM_LAT BOM_LON BOM_TYPE BOM_WIND BOM_PRES BOM_TNUM BOM_CI BOM_RMW BOM_R34_NE BOM_R34_SE BOM_R34_SW BOM_R34_NW BOM_R50_NE BOM_R50_SE BOM_R50_SW BOM_R50_NW BOM_R64_NE BOM_R64_SE BOM_R64_SW BOM_R64_NW BOM_ROCI BOM_POCI BOM_EYE BOM_POS_METHOD BOM_PRES_METHOD NADI_LAT NADI_LON NADI_CAT NADI_WIND NADI_PRES WELLINGTON_LAT WELLINGTON_LON WELLINGTON_WIND WELLINGTON_PRES DS824_LAT DS824_LON DS824_STAGE DS824_WIND DS824_PRES TD9636_LAT TD9636_LON TD9636_STAGE TD9636_WIND TD9636_PRES TD9635_LAT TD9635_LON TD9635_WIND TD9635_PRES TD9635_ROCI NEUMANN_LAT NEUMANN_LON NEUMANN_CLASS NEUMANN_WIND NEUMANN_PRES MLC_LAT MLC_LON MLC_CLASS MLC_WIND MLC_PRES USA_GUST BOM_GUST BOM_GUST_PER REUNION_GUST REUNION_GUST_PER USA_SEAHGT USA_SEARAD_NE USA_SEARAD_SE USA_SEARAD_SW USA_SEARAD_NW STORM_SPEED STORM_DIR
1890125N12094 1890 11 NI BB NOT_NAMED 1890-05-05 00:00:00 TS 11.8000 93.9000 main 451 439 _________O____ -1 11.8000 93.9000 TC 34 2 333
1890125N12094 1890 11 NI BB NOT_NAMED 1890-05-05 03:00:00 TS 11.8933 93.8667 main 439 430 _________PO___ -1 11.9400 93.8500 TC 36 11.8000 93.9000 2 3 343
1890125N12094 1890 11 NI BB NOT_NAMED 1890-05-05 06:00:00 TS 12.0506 93.8182 main 419 408 _________OP___ -1 12.1000 93.8000 TC 39 11.9766 93.8454 2 4 345
1890125N12094 1890 11 NI BB NOT_NAMED 1890-05-05 09:00:00 TS 12.2325 93.7682 main 408 388 _________PP___ -1 12.2925 93.7500 TC 42 12.1525 93.7926 2 4 345
1890125N12094 1890 11 NI BB NOT_NAMED 1890-05-05 12:00:00 TS 12.4136 93.7217 main 388 366 _________OP___ -1 12.5000 93.7000 TC 45 12.3272 93.7435 2 4 346
1890125N12094 1890 11 NI BB NOT_NAMED 1890-05-05 15:00:00 TS 12.6000 93.6713 main 366 346 _________PO___ -1 12.7000 93.6425 TC 45 12.5000 93.7000 3 4 346
1890125N12094 1890 11 NI BB NOT_NAMED 1890-05-05 18:00:00 TS 12.7863 93.6319 main 346 325 _________OP___ -1 12.9000 93.6000 TC 45 12.6725 93.6637 3 4 352
1890125N12094 1890 11 NI BB NOT_NAMED 1890-05-05 21:00:00 TS 12.9700 93.6137 main 325 303 _________PP___ -1 13.0850 93.5925 TC 45 12.8550 93.6350 3 4 0
1890125N12094 1890 11 NI BB NOT_NAMED 1890-05-06 00:00:00 TS 13.1800 93.6069 main 303 282 _________OP___ -1 13.3000 93.6000 TC 45 13.0600 93.6138 3 5 0
1890125N12094 1890 11 NI BB NOT_NAMED 1890-05-06 03:00:00 TS 13.4388 93.6000 main 282 250 _________PO___ -1 13.5775 93.6000 TC 45 13.3000 93.6000 3 6 0
1890125N12094 1890 11 NI BB NOT_NAMED 1890-05-06 06:00:00 TS 13.7425 93.5944 main 250 208 _________OP___ -1 13.9000 93.6000 TC 45 13.5850 93.5888 3 6 358
1890125N12094 1890 11 NI BB NOT_NAMED 1890-05-06 09:00:00 TS 14.0738 93.5925 main 208 178 _________PP___ -1 14.2425 93.6000 TC 45 13.9050 93.5850 3 7 0
1890125N12094 1890 11 NI BB NOT_NAMED 1890-05-06 12:00:00 TS 14.4238 93.5944 main 178 141 _________OP___ -1 14.6000 93.6000 TC 45 14.2475 93.5888 3 7 0
1890125N12094 1890 11 NI BB NOT_NAMED 1890-05-06 15:00:00 TS 14.7750 93.5963 main 141 116 _________PO___ -1 14.9500 93.5925 TC 45 14.6000 93.6000 3 7 2
1890125N12094 1890 11 NI BB NOT_NAMED 1890-05-06 18:00:00 TS 15.1153 93.5989 main 116 92 _________OP___ -1 15.3000 93.6000 TC 45 14.9306 93.5978 3 7 0
1890125N12094 1890 11 NI BB NOT_NAMED 1890-05-06 21:00:00 TS 15.4525 93.6165 main 85 57 _________PP___ -1 15.6350 93.6276 TC 45 15.2699 93.6055 3 7 5
1890125N12094 1890 11 NI BB NOT_NAMED 1890-05-07 00:00:00 TS 15.8122 93.6677 main 57 48 _________OP___ -1 16.0000 93.7000 TC 45 15.6243 93.6354 3 8 11
1890125N12094 1890 11 NI BB NOT_NAMED 1890-05-07 03:00:00 TS 16.2213 93.7675 main 48 42 _________PO___ -1 16.4425 93.8349 TC 41 16.0000 93.7000 3 9 15
1890125N12094 1890 11 NI BB NOT_NAMED 1890-05-07 06:00:00 TS 16.6538 93.9049 main 48 42 _________OP___ -1 16.9000 94.0000 TC 37 16.4075 93.8098 3 9 18
1890125N12094 1890 11 NI BB NOT_NAMED 1890-05-07 09:00:00 TS 17.0713 94.0525 main 38 33 _________PP___ -1 17.3075 94.1501 TC 33 16.8351 93.9548 3 9 19
1890125N12094 1890 11 NI BB NOT_NAMED 1890-05-07 12:00:00 TS 17.4850 94.2112 main 42 10 _________OP___ -1 17.7000 94.3000 TC 30 17.2700 94.1224 3 9 20
1890125N12094 1890 11 NI BB NOT_NAMED 1890-05-07 15:00:00 TS 17.9000 94.3713 main 10 0 _________PO___ -1 18.1000 94.4426 TC 30 17.7000 94.3000 1 9 21
1890125N12094 1890 11 NI BB NOT_NAMED 1890-05-07 18:00:00 TS 18.2802 94.5297 main 0 0 _________OP___ -1 18.5000 94.6000 TC 30 18.1153 94.4770 1 8 22
1890125N12094 1890 11 NI BB NOT_NAMED 1890-05-07 21:00:00 TS 18.6706 94.7072 main 0 0 _________PP___ -1 18.9001 94.7898 TC 30 18.5175 94.6521 1 8 24
1890125N12094 1890 11 NI BB NOT_NAMED 1890-05-08 00:00:00 TS 19.0407 94.8841 main 0 0 _________OP___ -1 19.3000 95.0000 TC 30 18.9110 94.8261 1 7 24
1890125N12094 1890 11 NI BB NOT_NAMED 1890-05-08 03:00:00 NR 19.3000 95.0000 main 0 __________O___ -1 TC 19.3000 95.0000 1 6 23

IBTrACS Databaseについて

本データベースは、米国NOAAが公開する1842年以降の世界の熱帯低気圧のベストトラックデータアーカイブInternational Best Track Archive for Climate Stewardship (IBTrACS)を、ウェブで閲覧しやすい形式に変換したものです。

最終更新日:2021-11-26